sensor_id;sensor_type;location;lat;lon;timestamp;P1;durP1;ratioP1;P2;durP2;ratioP2
29006;SDS011;16104;48.642;9.008;2024-01-06T00:00:29;5.22;;;3.50;;
29006;SDS011;16104;48.642;9.008;2024-01-06T00:05:25;7.32;;;3.60;;
29006;SDS011;16104;48.642;9.008;2024-01-06T00:10:20;8.00;;;4.03;;
29006;SDS011;16104;48.642;9.008;2024-01-06T00:15:16;8.52;;;4.28;;
29006;SDS011;16104;48.642;9.008;2024-01-06T00:20:11;6.35;;;3.83;;
29006;SDS011;16104;48.642;9.008;2024-01-06T00:25:07;6.18;;;3.90;;
29006;SDS011;16104;48.642;9.008;2024-01-06T00:30:03;9.02;;;4.38;;
29006;SDS011;16104;48.642;9.008;2024-01-06T00:34:58;7.95;;;5.10;;
29006;SDS011;16104;48.642;9.008;2024-01-06T00:39:54;8.02;;;4.22;;
29006;SDS011;16104;48.642;9.008;2024-01-06T00:44:49;7.55;;;4.57;;
29006;SDS011;16104;48.642;9.008;2024-01-06T00:49:45;6.88;;;3.90;;
29006;SDS011;16104;48.642;9.008;2024-01-06T00:54:41;6.07;;;3.50;;
29006;SDS011;16104;48.642;9.008;2024-01-06T00:59:37;6.25;;;3.50;;
29006;SDS011;16104;48.642;9.008;2024-01-06T05:04:56;6.43;;;1.98;;
29006;SDS011;16104;48.642;9.008;2024-01-06T05:09:52;3.38;;;1.65;;
29006;SDS011;16104;48.642;9.008;2024-01-06T05:14:47;3.30;;;1.80;;
29006;SDS011;16104;48.642;9.008;2024-01-06T05:19:43;5.25;;;1.95;;
29006;SDS011;16104;48.642;9.008;2024-01-06T05:30:32;2.80;;;1.60;;
29006;SDS011;16104;48.642;9.008;2024-01-06T05:35:28;3.47;;;2.10;;
29006;SDS011;16104;48.642;9.008;2024-01-06T05:40:24;4.53;;;2.05;;
29006;SDS011;16104;48.642;9.008;2024-01-06T05:45:19;7.60;;;1.65;;
29006;SDS011;16104;48.642;9.008;2024-01-06T05:50:15;5.80;;;1.95;;
29006;SDS011;16104;48.642;9.008;2024-01-06T05:55:11;3.42;;;1.73;;
29006;SDS011;16104;48.642;9.008;2024-01-06T06:00:10;5.45;;;2.00;;
29006;SDS011;16104;48.642;9.008;2024-01-06T06:05:06;4.72;;;1.70;;
29006;SDS011;16104;48.642;9.008;2024-01-06T06:10:02;4.25;;;1.60;;
29006;SDS011;16104;48.642;9.008;2024-01-06T06:14:58;7.03;;;1.67;;
29006;SDS011;16104;48.642;9.008;2024-01-06T06:19:54;3.03;;;1.38;;
29006;SDS011;16104;48.642;9.008;2024-01-06T06:24:49;2.47;;;1.25;;
29006;SDS011;16104;48.642;9.008;2024-01-06T06:29:45;7.47;;;1.40;;
29006;SDS011;16104;48.642;9.008;2024-01-06T06:34:40;3.00;;;1.33;;
29006;SDS011;16104;48.642;9.008;2024-01-06T06:39:37;4.50;;;1.30;;
29006;SDS011;16104;48.642;9.008;2024-01-06T06:44:32;2.55;;;1.33;;
29006;SDS011;16104;48.642;9.008;2024-01-06T06:49:28;2.78;;;1.42;;
29006;SDS011;16104;48.642;9.008;2024-01-06T06:54:23;5.78;;;1.85;;
29006;SDS011;16104;48.642;9.008;2024-01-06T06:59:19;6.93;;;1.80;;
29006;SDS011;16104;48.642;9.008;2024-01-06T07:04:14;7.72;;;1.98;;
29006;SDS011;16104;48.642;9.008;2024-01-06T07:09:10;5.47;;;1.95;;
29006;SDS011;16104;48.642;9.008;2024-01-06T07:14:05;5.30;;;2.10;;
29006;SDS011;16104;48.642;9.008;2024-01-06T07:19:00;4.38;;;1.80;;
29006;SDS011;16104;48.642;9.008;2024-01-06T07:23:56;4.80;;;2.10;;
29006;SDS011;16104;48.642;9.008;2024-01-06T07:28:51;3.60;;;2.17;;
29006;SDS011;16104;48.642;9.008;2024-01-06T07:33:47;4.00;;;1.70;;
29006;SDS011;16104;48.642;9.008;2024-01-06T07:38:42;4.35;;;1.88;;
29006;SDS011;16104;48.642;9.008;2024-01-06T07:43:40;3.75;;;2.00;;
29006;SDS011;16104;48.642;9.008;2024-01-06T07:48:36;5.25;;;1.80;;
29006;SDS011;16104;48.642;9.008;2024-01-06T07:53:31;5.10;;;1.85;;
29006;SDS011;16104;48.642;9.008;2024-01-06T07:58:28;3.40;;;1.70;;
29006;SDS011;16104;48.642;9.008;2024-01-06T08:03:23;8.13;;;2.05;;
29006;SDS011;16104;48.642;9.008;2024-01-06T08:08:20;3.03;;;1.73;;
29006;SDS011;16104;48.642;9.008;2024-01-06T08:13:15;4.75;;;2.03;;
29006;SDS011;16104;48.642;9.008;2024-01-06T08:18:11;2.78;;;1.58;;
29006;SDS011;16104;48.642;9.008;2024-01-06T08:23:07;3.60;;;1.65;;
29006;SDS011;16104;48.642;9.008;2024-01-06T08:28:02;3.70;;;1.85;;
29006;SDS011;16104;48.642;9.008;2024-01-06T08:32:58;3.65;;;1.83;;
29006;SDS011;16104;48.642;9.008;2024-01-06T08:37:54;2.65;;;1.50;;
29006;SDS011;16104;48.642;9.008;2024-01-06T08:42:50;2.00;;;1.40;;
29006;SDS011;16104;48.642;9.008;2024-01-06T08:47:45;4.70;;;1.55;;
29006;SDS011;16104;48.642;9.008;2024-01-06T08:52:41;4.47;;;2.00;;
29006;SDS011;16104;48.642;9.008;2024-01-06T08:57:36;4.15;;;1.90;;
29006;SDS011;16104;48.642;9.008;2024-01-06T09:02:32;2.67;;;1.83;;
29006;SDS011;16104;48.642;9.008;2024-01-06T09:07:27;3.30;;;2.42;;
29006;SDS011;16104;48.642;9.008;2024-01-06T09:12:23;4.03;;;2.50;;
29006;SDS011;16104;48.642;9.008;2024-01-06T09:17:18;2.72;;;1.60;;
29006;SDS011;16104;48.642;9.008;2024-01-06T09:22:14;3.05;;;1.50;;
29006;SDS011;16104;48.642;9.008;2024-01-06T09:27:09;3.35;;;1.90;;
29006;SDS011;16104;48.642;9.008;2024-01-06T09:32:05;1.63;;;1.30;;
29006;SDS011;16104;48.642;9.008;2024-01-06T09:37:00;3.28;;;1.80;;
29006;SDS011;16104;48.642;9.008;2024-01-06T09:41:56;2.70;;;1.67;;
29006;SDS011;16104;48.642;9.008;2024-01-06T09:46:52;3.35;;;1.40;;
29006;SDS011;16104;48.642;9.008;2024-01-06T09:51:52;2.88;;;1.48;;
29006;SDS011;16104;48.642;9.008;2024-01-06T09:56:51;2.30;;;1.13;;
29006;SDS011;16104;48.642;9.008;2024-01-06T10:01:47;1.58;;;1.20;;
29006;SDS011;16104;48.642;9.008;2024-01-06T10:06:44;2.00;;;1.38;;
29006;SDS011;16104;48.642;9.008;2024-01-06T10:11:40;2.00;;;1.10;;
29006;SDS011;16104;48.642;9.008;2024-01-06T10:16:36;2.03;;;1.27;;
29006;SDS011;16104;48.642;9.008;2024-01-06T10:21:33;1.35;;;1.10;;
29006;SDS011;16104;48.642;9.008;2024-01-06T10:26:29;1.30;;;1.20;;
29006;SDS011;16104;48.642;9.008;2024-01-06T10:31:26;1.05;;;0.95;;
29006;SDS011;16104;48.642;9.008;2024-01-06T10:36:22;1.90;;;1.02;;
29006;SDS011;16104;48.642;9.008;2024-01-06T10:41:18;2.53;;;1.65;;
29006;SDS011;16104;48.642;9.008;2024-01-06T10:46:15;1.75;;;1.00;;
29006;SDS011;16104;48.642;9.008;2024-01-06T10:51:13;0.85;;;0.80;;
29006;SDS011;16104;48.642;9.008;2024-01-06T10:56:10;1.17;;;0.77;;
29006;SDS011;16104;48.642;9.008;2024-01-06T11:01:06;1.00;;;0.90;;
29006;SDS011;16104;48.642;9.008;2024-01-06T11:06:01;2.63;;;1.02;;
29006;SDS011;16104;48.642;9.008;2024-01-06T11:10:57;2.65;;;1.02;;
29006;SDS011;16104;48.642;9.008;2024-01-06T11:15:53;2.03;;;0.85;;
29006;SDS011;16104;48.642;9.008;2024-01-06T11:26:07;0.80;;;0.70;;
29006;SDS011;16104;48.642;9.008;2024-01-06T11:31:09;5.20;;;2.72;;
29006;SDS011;16104;48.642;9.008;2024-01-06T11:36:07;1.27;;;1.00;;
29006;SDS011;16104;48.642;9.008;2024-01-06T11:41:05;1.30;;;1.20;;
29006;SDS011;16104;48.642;9.008;2024-01-06T11:46:02;1.25;;;0.90;;
29006;SDS011;16104;48.642;9.008;2024-01-06T11:51:02;0.80;;;0.80;;
29006;SDS011;16104;48.642;9.008;2024-01-06T11:55:59;1.00;;;0.70;;
29006;SDS011;16104;48.642;9.008;2024-01-06T12:00:55;1.08;;;0.93;;
29006;SDS011;16104;48.642;9.008;2024-01-06T12:05:59;3.80;;;1.02;;
29006;SDS011;16104;48.642;9.008;2024-01-06T12:11:02;1.40;;;0.80;;
29006;SDS011;16104;48.642;9.008;2024-01-06T12:15:58;0.60;;;0.60;;
29006;SDS011;16104;48.642;9.008;2024-01-06T12:20:55;0.70;;;0.50;;
29006;SDS011;16104;48.642;9.008;2024-01-06T12:25:51;0.73;;;0.60;;
29006;SDS011;16104;48.642;9.008;2024-01-06T12:30:46;0.90;;;0.63;;
29006;SDS011;16104;48.642;9.008;2024-01-06T12:35:42;0.90;;;0.63;;
29006;SDS011;16104;48.642;9.008;2024-01-06T12:40:37;0.75;;;0.60;;
29006;SDS011;16104;48.642;9.008;2024-01-06T12:45:33;0.85;;;0.60;;
29006;SDS011;16104;48.642;9.008;2024-01-06T12:50:28;0.70;;;0.60;;
29006;SDS011;16104;48.642;9.008;2024-01-06T12:55:24;1.80;;;0.60;;
29006;SDS011;16104;48.642;9.008;2024-01-06T13:00:19;1.08;;;0.50;;
29006;SDS011;16104;48.642;9.008;2024-01-06T13:05:15;0.68;;;0.55;;
29006;SDS011;16104;48.642;9.008;2024-01-06T13:10:11;0.75;;;0.70;;
29006;SDS011;16104;48.642;9.008;2024-01-06T13:15:07;1.58;;;0.57;;
29006;SDS011;16104;48.642;9.008;2024-01-06T13:20:06;0.80;;;0.80;;
29006;SDS011;16104;48.642;9.008;2024-01-06T13:25:03;0.63;;;0.63;;
29006;SDS011;16104;48.642;9.008;2024-01-06T13:30:03;1.45;;;0.88;;
29006;SDS011;16104;48.642;9.008;2024-01-06T13:34:59;0.93;;;0.80;;
29006;SDS011;16104;48.642;9.008;2024-01-06T13:39:59;1.17;;;0.98;;
29006;SDS011;16104;48.642;9.008;2024-01-06T13:44:54;0.73;;;0.73;;
29006;SDS011;16104;48.642;9.008;2024-01-06T13:49:50;1.40;;;1.30;;
29006;SDS011;16104;48.642;9.008;2024-01-06T13:54:45;0.77;;;0.77;;
29006;SDS011;16104;48.642;9.008;2024-01-06T13:59:42;0.90;;;0.90;;
29006;SDS011;16104;48.642;9.008;2024-01-06T14:04:37;2.25;;;1.10;;
29006;SDS011;16104;48.642;9.008;2024-01-06T14:09:33;1.25;;;1.15;;
29006;SDS011;16104;48.642;9.008;2024-01-06T14:14:28;1.38;;;1.27;;
29006;SDS011;16104;48.642;9.008;2024-01-06T14:19:25;2.13;;;1.60;;
29006;SDS011;16104;48.642;9.008;2024-01-06T14:24:21;1.63;;;1.52;;
29006;SDS011;16104;48.642;9.008;2024-01-06T14:29:19;2.00;;;1.60;;
29006;SDS011;16104;48.642;9.008;2024-01-06T14:34:15;2.72;;;1.90;;
29006;SDS011;16104;48.642;9.008;2024-01-06T14:39:10;3.90;;;2.10;;
29006;SDS011;16104;48.642;9.008;2024-01-06T14:44:06;1.77;;;1.67;;
29006;SDS011;16104;48.642;9.008;2024-01-06T14:49:02;1.77;;;1.67;;
29006;SDS011;16104;48.642;9.008;2024-01-06T14:53:58;3.20;;;2.20;;
29006;SDS011;16104;48.642;9.008;2024-01-06T14:58:53;2.17;;;1.92;;
29006;SDS011;16104;48.642;9.008;2024-01-06T15:03:49;2.25;;;2.05;;
29006;SDS011;16104;48.642;9.008;2024-01-06T15:08:44;3.40;;;3.10;;
29006;SDS011;16104;48.642;9.008;2024-01-06T15:13:40;4.32;;;3.63;;
29006;SDS011;16104;48.642;9.008;2024-01-06T15:18:35;5.25;;;4.43;;
29006;SDS011;16104;48.642;9.008;2024-01-06T15:23:31;3.95;;;3.42;;
29006;SDS011;16104;48.642;9.008;2024-01-06T15:28:26;3.28;;;2.90;;
29006;SDS011;16104;48.642;9.008;2024-01-06T15:33:22;4.32;;;3.63;;
29006;SDS011;16104;48.642;9.008;2024-01-06T15:38:17;4.55;;;3.53;;
29006;SDS011;16104;48.642;9.008;2024-01-06T15:43:13;6.78;;;6.07;;
29006;SDS011;16104;48.642;9.008;2024-01-06T15:48:08;4.57;;;3.70;;
29006;SDS011;16104;48.642;9.008;2024-01-06T15:53:04;4.40;;;3.53;;
29006;SDS011;16104;48.642;9.008;2024-01-06T15:57:59;4.53;;;3.95;;
29006;SDS011;16104;48.642;9.008;2024-01-06T16:02:55;5.40;;;4.30;;
29006;SDS011;16104;48.642;9.008;2024-01-06T16:07:50;8.68;;;6.43;;
29006;SDS011;16104;48.642;9.008;2024-01-06T16:12:47;7.28;;;5.43;;
29006;SDS011;16104;48.642;9.008;2024-01-06T16:17:43;7.25;;;5.25;;
29006;SDS011;16104;48.642;9.008;2024-01-06T16:22:39;7.93;;;5.93;;
29006;SDS011;16104;48.642;9.008;2024-01-06T16:27:34;7.15;;;5.93;;
29006;SDS011;16104;48.642;9.008;2024-01-06T16:32:29;6.57;;;5.20;;
29006;SDS011;16104;48.642;9.008;2024-01-06T16:37:25;7.65;;;5.93;;
29006;SDS011;16104;48.642;9.008;2024-01-06T16:42:20;7.97;;;6.00;;
29006;SDS011;16104;48.642;9.008;2024-01-06T16:47:16;7.07;;;5.47;;
29006;SDS011;16104;48.642;9.008;2024-01-06T16:52:12;8.80;;;6.20;;
29006;SDS011;16104;48.642;9.008;2024-01-06T16:57:07;7.93;;;5.95;;
29006;SDS011;16104;48.642;9.008;2024-01-06T17:02:03;7.97;;;5.85;;
29006;SDS011;16104;48.642;9.008;2024-01-06T17:06:58;7.13;;;5.78;;
29006;SDS011;16104;48.642;9.008;2024-01-06T17:11:54;8.70;;;6.88;;
29006;SDS011;16104;48.642;9.008;2024-01-06T17:16:49;8.02;;;5.50;;
29006;SDS011;16104;48.642;9.008;2024-01-06T17:21:45;17.48;;;9.80;;
29006;SDS011;16104;48.642;9.008;2024-01-06T17:26:40;10.48;;;6.35;;
29006;SDS011;16104;48.642;9.008;2024-01-06T17:31:37;7.45;;;5.28;;
29006;SDS011;16104;48.642;9.008;2024-01-06T17:36:32;5.53;;;4.47;;
29006;SDS011;16104;48.642;9.008;2024-01-06T17:41:28;6.07;;;4.78;;
29006;SDS011;16104;48.642;9.008;2024-01-06T17:46:25;5.72;;;4.78;;
29006;SDS011;16104;48.642;9.008;2024-01-06T17:51:20;8.65;;;5.88;;
29006;SDS011;16104;48.642;9.008;2024-01-06T17:56:19;46.15;;;22.73;;
29006;SDS011;16104;48.642;9.008;2024-01-06T18:01:14;9.25;;;6.80;;
29006;SDS011;16104;48.642;9.008;2024-01-06T18:06:10;10.85;;;8.35;;
29006;SDS011;16104;48.642;9.008;2024-01-06T18:11:05;7.80;;;5.38;;
29006;SDS011;16104;48.642;9.008;2024-01-06T18:16:01;6.15;;;4.93;;
29006;SDS011;16104;48.642;9.008;2024-01-06T18:20:56;7.07;;;5.05;;
29006;SDS011;16104;48.642;9.008;2024-01-06T18:25:52;17.38;;;9.70;;
29006;SDS011;16104;48.642;9.008;2024-01-06T18:30:48;12.88;;;7.90;;
29006;SDS011;16104;48.642;9.008;2024-01-06T18:35:43;10.75;;;7.93;;
29006;SDS011;16104;48.642;9.008;2024-01-06T18:40:39;11.25;;;7.65;;
29006;SDS011;16104;48.642;9.008;2024-01-06T18:45:34;10.25;;;7.93;;
29006;SDS011;16104;48.642;9.008;2024-01-06T18:50:30;12.82;;;9.45;;
29006;SDS011;16104;48.642;9.008;2024-01-06T18:55:25;9.85;;;7.57;;
29006;SDS011;16104;48.642;9.008;2024-01-06T19:00:21;9.85;;;7.43;;
29006;SDS011;16104;48.642;9.008;2024-01-06T19:05:17;12.10;;;7.20;;
29006;SDS011;16104;48.642;9.008;2024-01-06T19:10:12;11.35;;;8.75;;
29006;SDS011;16104;48.642;9.008;2024-01-06T19:15:08;10.70;;;7.57;;
29006;SDS011;16104;48.642;9.008;2024-01-06T19:20:04;15.10;;;7.90;;
29006;SDS011;16104;48.642;9.008;2024-01-06T19:25:01;10.40;;;7.30;;
29006;SDS011;16104;48.642;9.008;2024-01-06T19:29:56;11.23;;;8.30;;
29006;SDS011;16104;48.642;9.008;2024-01-06T19:34:52;9.90;;;7.35;;
29006;SDS011;16104;48.642;9.008;2024-01-06T19:39:49;12.00;;;9.40;;
29006;SDS011;16104;48.642;9.008;2024-01-06T19:44:44;12.77;;;8.35;;
29006;SDS011;16104;48.642;9.008;2024-01-06T19:49:40;15.75;;;10.50;;
29006;SDS011;16104;48.642;9.008;2024-01-06T19:54:36;10.02;;;7.75;;
29006;SDS011;16104;48.642;9.008;2024-01-06T19:59:32;16.25;;;11.18;;
29006;SDS011;16104;48.642;9.008;2024-01-06T20:04:28;19.77;;;12.52;;
29006;SDS011;16104;48.642;9.008;2024-01-06T20:09:23;14.88;;;10.13;;
29006;SDS011;16104;48.642;9.008;2024-01-06T20:14:19;12.40;;;9.30;;
29006;SDS011;16104;48.642;9.008;2024-01-06T20:19:14;14.40;;;10.05;;
29006;SDS011;16104;48.642;9.008;2024-01-06T20:24:10;13.57;;;10.30;;
29006;SDS011;16104;48.642;9.008;2024-01-06T20:29:06;13.23;;;9.68;;
29006;SDS011;16104;48.642;9.008;2024-01-06T20:34:01;14.25;;;10.15;;
29006;SDS011;16104;48.642;9.008;2024-01-06T20:38:57;14.55;;;9.93;;
29006;SDS011;16104;48.642;9.008;2024-01-06T20:43:52;14.70;;;10.82;;
29006;SDS011;16104;48.642;9.008;2024-01-06T20:48:48;14.13;;;11.18;;
29006;SDS011;16104;48.642;9.008;2024-01-06T20:53:44;16.02;;;10.75;;
29006;SDS011;16104;48.642;9.008;2024-01-06T20:58:39;13.77;;;9.75;;
29006;SDS011;16104;48.642;9.008;2024-01-06T21:03:35;14.70;;;10.75;;
29006;SDS011;16104;48.642;9.008;2024-01-06T21:08:33;17.50;;;12.27;;
29006;SDS011;16104;48.642;9.008;2024-01-06T21:13:29;18.02;;;12.65;;
29006;SDS011;16104;48.642;9.008;2024-01-06T21:18:25;17.80;;;12.25;;
29006;SDS011;16104;48.642;9.008;2024-01-06T21:23:20;16.30;;;12.40;;
29006;SDS011;16104;48.642;9.008;2024-01-06T21:28:16;15.25;;;11.18;;
29006;SDS011;16104;48.642;9.008;2024-01-06T21:33:11;15.52;;;10.95;;
29006;SDS011;16104;48.642;9.008;2024-01-06T21:38:07;17.45;;;10.88;;
29006;SDS011;16104;48.642;9.008;2024-01-06T21:43:07;16.50;;;10.70;;
29006;SDS011;16104;48.642;9.008;2024-01-06T21:48:03;15.25;;;10.68;;
29006;SDS011;16104;48.642;9.008;2024-01-06T21:52:59;14.13;;;10.38;;
29006;SDS011;16104;48.642;9.008;2024-01-06T21:57:54;17.30;;;11.55;;
29006;SDS011;16104;48.642;9.008;2024-01-06T22:02:51;14.90;;;10.88;;
29006;SDS011;16104;48.642;9.008;2024-01-06T22:07:47;14.73;;;10.48;;
29006;SDS011;16104;48.642;9.008;2024-01-06T22:12:42;16.33;;;11.07;;
29006;SDS011;16104;48.642;9.008;2024-01-06T22:17:38;16.98;;;10.65;;
29006;SDS011;16104;48.642;9.008;2024-01-06T22:22:33;16.88;;;11.98;;
29006;SDS011;16104;48.642;9.008;2024-01-06T22:27:29;16.55;;;10.93;;
29006;SDS011;16104;48.642;9.008;2024-01-06T22:32:24;17.45;;;12.20;;
29006;SDS011;16104;48.642;9.008;2024-01-06T22:37:21;20.60;;;13.77;;
29006;SDS011;16104;48.642;9.008;2024-01-06T22:42:17;17.80;;;11.32;;
29006;SDS011;16104;48.642;9.008;2024-01-06T22:47:12;18.38;;;12.18;;
29006;SDS011;16104;48.642;9.008;2024-01-06T22:52:08;14.35;;;10.02;;
29006;SDS011;16104;48.642;9.008;2024-01-06T22:57:05;17.85;;;11.10;;
29006;SDS011;16104;48.642;9.008;2024-01-06T23:02:00;15.68;;;10.95;;
29006;SDS011;16104;48.642;9.008;2024-01-06T23:06:56;16.48;;;11.32;;
29006;SDS011;16104;48.642;9.008;2024-01-06T23:11:51;16.88;;;11.38;;
29006;SDS011;16104;48.642;9.008;2024-01-06T23:16:47;17.25;;;11.55;;
29006;SDS011;16104;48.642;9.008;2024-01-06T23:21:42;14.63;;;9.90;;
29006;SDS011;16104;48.642;9.008;2024-01-06T23:26:38;16.27;;;11.10;;
29006;SDS011;16104;48.642;9.008;2024-01-06T23:31:33;13.68;;;10.60;;
29006;SDS011;16104;48.642;9.008;2024-01-06T23:36:29;17.50;;;11.40;;
29006;SDS011;16104;48.642;9.008;2024-01-06T23:41:24;13.82;;;10.35;;
29006;SDS011;16104;48.642;9.008;2024-01-06T23:46:20;15.68;;;10.98;;
29006;SDS011;16104;48.642;9.008;2024-01-06T23:51:20;15.45;;;10.40;;
29006;SDS011;16104;48.642;9.008;2024-01-06T23:56:15;23.02;;;12.23;;
